sensor_id;sensor_type;location;lat;lon;timestamp;P1;durP1;ratioP1;P2;durP2;ratioP2
7479;SDS011;3781;42.272;22.658;2024-02-15T00:00:18;2.53;;;0.83;;
7479;SDS011;3781;42.272;22.658;2024-02-15T00:02:45;5.80;;;1.47;;
7479;SDS011;3781;42.272;22.658;2024-02-15T00:05:12;0.83;;;0.83;;
7479;SDS011;3781;42.272;22.658;2024-02-15T00:07:39;0.93;;;0.93;;
7479;SDS011;3781;42.272;22.658;2024-02-15T00:10:07;0.23;;;0.23;;
7479;SDS011;3781;42.272;22.658;2024-02-15T00:12:34;1.43;;;1.33;;
7479;SDS011;3781;42.272;22.658;2024-02-15T00:15:01;0.30;;;0.30;;
7479;SDS011;3781;42.272;22.658;2024-02-15T00:17:30;1.20;;;1.10;;
7479;SDS011;3781;42.272;22.658;2024-02-15T00:19:58;0.90;;;0.90;;
7479;SDS011;3781;42.272;22.658;2024-02-15T00:22:25;1.17;;;0.97;;
7479;SDS011;3781;42.272;22.658;2024-02-15T00:24:51;1.67;;;1.13;;
7479;SDS011;3781;42.272;22.658;2024-02-15T00:27:18;0.40;;;0.40;;
7479;SDS011;3781;42.272;22.658;2024-02-15T00:29:46;2.43;;;0.70;;
7479;SDS011;3781;42.272;22.658;2024-02-15T00:32:12;1.57;;;1.33;;
7479;SDS011;3781;42.272;22.658;2024-02-15T00:34:40;3.67;;;1.23;;
7479;SDS011;3781;42.272;22.658;2024-02-15T00:37:07;3.30;;;1.17;;
7479;SDS011;3781;42.272;22.658;2024-02-15T00:39:34;1.83;;;1.07;;
7479;SDS011;3781;42.272;22.658;2024-02-15T00:42:01;1.00;;;1.00;;
7479;SDS011;3781;42.272;22.658;2024-02-15T00:44:28;6.23;;;1.70;;
7479;SDS011;3781;42.272;22.658;2024-02-15T00:46:55;1.67;;;1.13;;
7479;SDS011;3781;42.272;22.658;2024-02-15T00:49:22;1.37;;;1.20;;
7479;SDS011;3781;42.272;22.658;2024-02-15T00:51:52;2.93;;;1.10;;
7479;SDS011;3781;42.272;22.658;2024-02-15T00:54:19;3.63;;;2.07;;
7479;SDS011;3781;42.272;22.658;2024-02-15T00:56:47;4.93;;;2.93;;
7479;SDS011;3781;42.272;22.658;2024-02-15T00:59:14;3.87;;;2.90;;
7479;SDS011;3781;42.272;22.658;2024-02-15T01:01:41;8.83;;;2.63;;
7479;SDS011;3781;42.272;22.658;2024-02-15T01:04:07;4.27;;;3.57;;
7479;SDS011;3781;42.272;22.658;2024-02-15T01:06:34;5.27;;;2.30;;
7479;SDS011;3781;42.272;22.658;2024-02-15T01:09:02;2.67;;;1.57;;
7479;SDS011;3781;42.272;22.658;2024-02-15T01:11:29;3.90;;;2.03;;
7479;SDS011;3781;42.272;22.658;2024-02-15T01:13:57;2.07;;;1.60;;
7479;SDS011;3781;42.272;22.658;2024-02-15T01:16:23;2.47;;;2.27;;
7479;SDS011;3781;42.272;22.658;2024-02-15T01:18:50;1.43;;;1.27;;
7479;SDS011;3781;42.272;22.658;2024-02-15T01:21:17;2.47;;;1.63;;
7479;SDS011;3781;42.272;22.658;2024-02-15T01:23:44;2.47;;;2.00;;
7479;SDS011;3781;42.272;22.658;2024-02-15T01:26:13;1.30;;;1.23;;
7479;SDS011;3781;42.272;22.658;2024-02-15T01:28:40;3.53;;;2.20;;
7479;SDS011;3781;42.272;22.658;2024-02-15T01:31:08;1.43;;;1.33;;
7479;SDS011;3781;42.272;22.658;2024-02-15T01:33:36;2.03;;;1.50;;
7479;SDS011;3781;42.272;22.658;2024-02-15T01:36:03;1.90;;;1.03;;
7479;SDS011;3781;42.272;22.658;2024-02-15T01:38:31;1.63;;;1.07;;
7479;SDS011;3781;42.272;22.658;2024-02-15T01:40:57;1.60;;;0.60;;
7479;SDS011;3781;42.272;22.658;2024-02-15T01:43:25;4.33;;;1.50;;
7479;SDS011;3781;42.272;22.658;2024-02-15T01:45:52;0.57;;;0.57;;
7479;SDS011;3781;42.272;22.658;2024-02-15T01:48:19;2.57;;;1.57;;
7479;SDS011;3781;42.272;22.658;2024-02-15T01:50:46;1.97;;;1.30;;
7479;SDS011;3781;42.272;22.658;2024-02-15T01:53:13;1.80;;;1.50;;
7479;SDS011;3781;42.272;22.658;2024-02-15T01:55:40;3.77;;;2.47;;
7479;SDS011;3781;42.272;22.658;2024-02-15T01:58:07;1.57;;;1.47;;
7479;SDS011;3781;42.272;22.658;2024-02-15T02:00:35;6.63;;;2.67;;
7479;SDS011;3781;42.272;22.658;2024-02-15T02:03:04;1.13;;;1.13;;
7479;SDS011;3781;42.272;22.658;2024-02-15T02:05:32;3.77;;;1.97;;
7479;SDS011;3781;42.272;22.658;2024-02-15T02:07:59;1.70;;;1.30;;
7479;SDS011;3781;42.272;22.658;2024-02-15T02:10:29;6.37;;;1.33;;
7479;SDS011;3781;42.272;22.658;2024-02-15T02:12:58;3.27;;;2.13;;
7479;SDS011;3781;42.272;22.658;2024-02-15T02:15:26;2.97;;;1.60;;
7479;SDS011;3781;42.272;22.658;2024-02-15T02:17:54;2.20;;;1.37;;
7479;SDS011;3781;42.272;22.658;2024-02-15T02:20:21;1.90;;;1.77;;
7479;SDS011;3781;42.272;22.658;2024-02-15T02:22:48;1.07;;;1.07;;
7479;SDS011;3781;42.272;22.658;2024-02-15T02:25:18;1.97;;;0.93;;
7479;SDS011;3781;42.272;22.658;2024-02-15T02:27:45;3.50;;;0.90;;
7479;SDS011;3781;42.272;22.658;2024-02-15T02:30:14;1.70;;;1.23;;
7479;SDS011;3781;42.272;22.658;2024-02-15T02:32:43;2.53;;;1.47;;
7479;SDS011;3781;42.272;22.658;2024-02-15T02:35:11;1.63;;;1.30;;
7479;SDS011;3781;42.272;22.658;2024-02-15T02:37:38;3.73;;;1.90;;
7479;SDS011;3781;42.272;22.658;2024-02-15T02:40:05;1.80;;;1.70;;
7479;SDS011;3781;42.272;22.658;2024-02-15T02:42:35;2.67;;;1.93;;
7479;SDS011;3781;42.272;22.658;2024-02-15T02:45:03;1.87;;;1.57;;
7479;SDS011;3781;42.272;22.658;2024-02-15T02:47:30;2.63;;;1.60;;
7479;SDS011;3781;42.272;22.658;2024-02-15T02:49:57;6.47;;;2.83;;
7479;SDS011;3781;42.272;22.658;2024-02-15T02:52:23;4.33;;;1.93;;
7479;SDS011;3781;42.272;22.658;2024-02-15T02:54:50;2.80;;;2.33;;
7479;SDS011;3781;42.272;22.658;2024-02-15T02:57:17;3.10;;;2.37;;
7479;SDS011;3781;42.272;22.658;2024-02-15T02:59:45;2.00;;;1.40;;
7479;SDS011;3781;42.272;22.658;2024-02-15T03:02:12;1.63;;;1.53;;
7479;SDS011;3781;42.272;22.658;2024-02-15T03:04:39;2.50;;;1.50;;
7479;SDS011;3781;42.272;22.658;2024-02-15T03:07:06;1.47;;;1.37;;
7479;SDS011;3781;42.272;22.658;2024-02-15T03:09:33;2.47;;;1.83;;
7479;SDS011;3781;42.272;22.658;2024-02-15T03:12:00;1.17;;;1.17;;
7479;SDS011;3781;42.272;22.658;2024-02-15T03:14:27;2.63;;;1.90;;
7479;SDS011;3781;42.272;22.658;2024-02-15T03:16:56;1.80;;;1.70;;
7479;SDS011;3781;42.272;22.658;2024-02-15T03:19:23;3.97;;;1.40;;
7479;SDS011;3781;42.272;22.658;2024-02-15T03:21:51;0.63;;;0.63;;
7479;SDS011;3781;42.272;22.658;2024-02-15T03:24:18;1.50;;;1.33;;
7479;SDS011;3781;42.272;22.658;2024-02-15T03:26:45;1.17;;;0.93;;
7479;SDS011;3781;42.272;22.658;2024-02-15T03:29:11;2.37;;;1.77;;
7479;SDS011;3781;42.272;22.658;2024-02-15T03:31:38;0.40;;;0.40;;
7479;SDS011;3781;42.272;22.658;2024-02-15T03:34:06;1.03;;;0.63;;
7479;SDS011;3781;42.272;22.658;2024-02-15T03:36:36;0.63;;;0.63;;
7479;SDS011;3781;42.272;22.658;2024-02-15T03:39:02;1.40;;;0.87;;
7479;SDS011;3781;42.272;22.658;2024-02-15T03:41:31;2.60;;;1.00;;
7479;SDS011;3781;42.272;22.658;2024-02-15T03:43:58;0.20;;;0.20;;
7479;SDS011;3781;42.272;22.658;2024-02-15T03:46:25;0.53;;;0.53;;
7479;SDS011;3781;42.272;22.658;2024-02-15T03:48:53;1.33;;;0.70;;
7479;SDS011;3781;42.272;22.658;2024-02-15T03:51:22;0.60;;;0.60;;
7479;SDS011;3781;42.272;22.658;2024-02-15T03:53:49;0.93;;;0.93;;
7479;SDS011;3781;42.272;22.658;2024-02-15T03:56:17;3.17;;;1.33;;
7479;SDS011;3781;42.272;22.658;2024-02-15T03:58:44;1.77;;;1.53;;
7479;SDS011;3781;42.272;22.658;2024-02-15T04:01:10;1.23;;;1.23;;
7479;SDS011;3781;42.272;22.658;2024-02-15T04:03:40;0.43;;;0.43;;
7479;SDS011;3781;42.272;22.658;2024-02-15T04:06:07;0.23;;;0.23;;
7479;SDS011;3781;42.272;22.658;2024-02-15T04:08:35;1.00;;;0.97;;
7479;SDS011;3781;42.272;22.658;2024-02-15T04:11:04;1.67;;;0.60;;
7479;SDS011;3781;42.272;22.658;2024-02-15T04:13:31;0.63;;;0.63;;
7479;SDS011;3781;42.272;22.658;2024-02-15T04:15:58;0.47;;;0.47;;
7479;SDS011;3781;42.272;22.658;2024-02-15T04:18:25;2.23;;;1.97;;
7479;SDS011;3781;42.272;22.658;2024-02-15T04:20:51;2.00;;;1.47;;
7479;SDS011;3781;42.272;22.658;2024-02-15T04:23:18;1.10;;;0.93;;
7479;SDS011;3781;42.272;22.658;2024-02-15T04:25:47;0.73;;;0.73;;
7479;SDS011;3781;42.272;22.658;2024-02-15T04:28:16;1.20;;;0.87;;
7479;SDS011;3781;42.272;22.658;2024-02-15T04:30:43;0.83;;;0.83;;
7479;SDS011;3781;42.272;22.658;2024-02-15T04:33:11;3.20;;;0.30;;
7479;SDS011;3781;42.272;22.658;2024-02-15T04:35:40;0.83;;;0.83;;
7479;SDS011;3781;42.272;22.658;2024-02-15T04:38:07;1.43;;;1.20;;
7479;SDS011;3781;42.272;22.658;2024-02-15T04:40:34;0.70;;;0.70;;
7479;SDS011;3781;42.272;22.658;2024-02-15T04:43:04;1.37;;;1.03;;
7479;SDS011;3781;42.272;22.658;2024-02-15T04:45:32;1.70;;;1.43;;
7479;SDS011;3781;42.272;22.658;2024-02-15T04:47:58;1.23;;;0.73;;
7479;SDS011;3781;42.272;22.658;2024-02-15T04:50:27;1.60;;;1.10;;
7479;SDS011;3781;42.272;22.658;2024-02-15T04:52:54;1.43;;;0.40;;
7479;SDS011;3781;42.272;22.658;2024-02-15T04:55:21;2.33;;;0.80;;
7479;SDS011;3781;42.272;22.658;2024-02-15T04:57:48;0.80;;;0.80;;
7479;SDS011;3781;42.272;22.658;2024-02-15T05:00:21;1.63;;;1.27;;
7479;SDS011;3781;42.272;22.658;2024-02-15T05:02:50;0.70;;;0.43;;
7479;SDS011;3781;42.272;22.658;2024-02-15T05:05:17;2.40;;;1.27;;
7479;SDS011;3781;42.272;22.658;2024-02-15T05:07:44;3.47;;;1.43;;
7479;SDS011;3781;42.272;22.658;2024-02-15T05:10:14;5.53;;;1.80;;
7479;SDS011;3781;42.272;22.658;2024-02-15T05:12:43;4.50;;;1.63;;
7479;SDS011;3781;42.272;22.658;2024-02-15T05:15:13;4.17;;;1.77;;
7479;SDS011;3781;42.272;22.658;2024-02-15T05:17:44;1.80;;;1.63;;
7479;SDS011;3781;42.272;22.658;2024-02-15T05:20:11;1.53;;;1.23;;
7479;SDS011;3781;42.272;22.658;2024-02-15T05:22:38;2.37;;;2.00;;
7479;SDS011;3781;42.272;22.658;2024-02-15T05:25:08;2.10;;;1.80;;
7479;SDS011;3781;42.272;22.658;2024-02-15T05:27:37;0.60;;;0.60;;
7479;SDS011;3781;42.272;22.658;2024-02-15T05:30:04;0.93;;;0.93;;
7479;SDS011;3781;42.272;22.658;2024-02-15T05:32:32;2.43;;;1.30;;
7479;SDS011;3781;42.272;22.658;2024-02-15T05:35:08;2.67;;;1.33;;
7479;SDS011;3781;42.272;22.658;2024-02-15T05:37:35;2.47;;;2.13;;
7479;SDS011;3781;42.272;22.658;2024-02-15T05:40:05;5.47;;;1.47;;
7479;SDS011;3781;42.272;22.658;2024-02-15T05:42:40;2.20;;;1.27;;
7479;SDS011;3781;42.272;22.658;2024-02-15T05:47:57;2.40;;;1.50;;
7479;SDS011;3781;42.272;22.658;2024-02-15T05:50:26;0.77;;;0.33;;
7479;SDS011;3781;42.272;22.658;2024-02-15T05:52:55;1.67;;;1.57;;
7479;SDS011;3781;42.272;22.658;2024-02-15T05:55:23;1.70;;;1.47;;
7479;SDS011;3781;42.272;22.658;2024-02-15T05:57:51;5.20;;;2.70;;
7479;SDS011;3781;42.272;22.658;2024-02-15T06:00:21;0.70;;;0.70;;
7479;SDS011;3781;42.272;22.658;2024-02-15T06:02:48;2.53;;;1.30;;
7479;SDS011;3781;42.272;22.658;2024-02-15T06:05:16;1.83;;;1.40;;
7479;SDS011;3781;42.272;22.658;2024-02-15T06:07:45;0.43;;;0.43;;
7479;SDS011;3781;42.272;22.658;2024-02-15T06:10:12;2.90;;;1.33;;
7479;SDS011;3781;42.272;22.658;2024-02-15T06:12:40;2.30;;;1.47;;
7479;SDS011;3781;42.272;22.658;2024-02-15T06:15:07;2.20;;;1.23;;
7479;SDS011;3781;42.272;22.658;2024-02-15T06:17:40;1.83;;;1.50;;
7479;SDS011;3781;42.272;22.658;2024-02-15T06:20:10;5.73;;;2.77;;
7479;SDS011;3781;42.272;22.658;2024-02-15T06:22:39;2.90;;;2.03;;
7479;SDS011;3781;42.272;22.658;2024-02-15T06:25:09;3.03;;;2.57;;
7479;SDS011;3781;42.272;22.658;2024-02-15T06:27:36;1.73;;;1.43;;
7479;SDS011;3781;42.272;22.658;2024-02-15T06:30:08;2.93;;;1.80;;
7479;SDS011;3781;42.272;22.658;2024-02-15T06:32:55;2.10;;;1.33;;
7479;SDS011;3781;42.272;22.658;2024-02-15T06:35:40;2.30;;;1.60;;
7479;SDS011;3781;42.272;22.658;2024-02-15T06:38:28;2.40;;;1.70;;
7479;SDS011;3781;42.272;22.658;2024-02-15T06:41:14;1.53;;;1.43;;
7479;SDS011;3781;42.272;22.658;2024-02-15T06:43:40;3.37;;;1.70;;
7479;SDS011;3781;42.272;22.658;2024-02-15T06:46:07;6.30;;;2.50;;
7479;SDS011;3781;42.272;22.658;2024-02-15T06:48:35;2.90;;;1.90;;
7479;SDS011;3781;42.272;22.658;2024-02-15T06:51:03;2.23;;;1.67;;
7479;SDS011;3781;42.272;22.658;2024-02-15T06:53:30;3.83;;;2.53;;
7479;SDS011;3781;42.272;22.658;2024-02-15T06:55:57;3.93;;;2.00;;
7479;SDS011;3781;42.272;22.658;2024-02-15T06:58:25;2.63;;;2.43;;
7479;SDS011;3781;42.272;22.658;2024-02-15T07:00:52;3.20;;;1.57;;
7479;SDS011;3781;42.272;22.658;2024-02-15T07:03:19;2.70;;;1.87;;
7479;SDS011;3781;42.272;22.658;2024-02-15T07:05:47;3.17;;;2.40;;
7479;SDS011;3781;42.272;22.658;2024-02-15T07:08:14;3.40;;;2.17;;
7479;SDS011;3781;42.272;22.658;2024-02-15T07:10:41;2.23;;;2.03;;
7479;SDS011;3781;42.272;22.658;2024-02-15T07:13:08;2.43;;;2.07;;
7479;SDS011;3781;42.272;22.658;2024-02-15T07:15:40;3.33;;;2.60;;
7479;SDS011;3781;42.272;22.658;2024-02-15T07:18:19;3.43;;;3.10;;
7479;SDS011;3781;42.272;22.658;2024-02-15T07:21:11;5.60;;;2.90;;
7479;SDS011;3781;42.272;22.658;2024-02-15T07:23:50;3.10;;;2.90;;
7479;SDS011;3781;42.272;22.658;2024-02-15T07:27:07;4.07;;;3.37;;
7479;SDS011;3781;42.272;22.658;2024-02-15T07:29:51;6.43;;;2.63;;
7479;SDS011;3781;42.272;22.658;2024-02-15T07:32:19;5.93;;;3.43;;
7479;SDS011;3781;42.272;22.658;2024-02-15T07:34:46;9.67;;;4.43;;
7479;SDS011;3781;42.272;22.658;2024-02-15T07:37:13;5.73;;;3.40;;
7479;SDS011;3781;42.272;22.658;2024-02-15T07:39:41;5.23;;;3.07;;
7479;SDS011;3781;42.272;22.658;2024-02-15T07:42:12;6.23;;;3.60;;
7479;SDS011;3781;42.272;22.658;2024-02-15T07:44:50;5.10;;;3.23;;
7479;SDS011;3781;42.272;22.658;2024-02-15T07:47:17;8.20;;;3.87;;
7479;SDS011;3781;42.272;22.658;2024-02-15T07:49:49;8.63;;;3.13;;
7479;SDS011;3781;42.272;22.658;2024-02-15T07:52:16;6.27;;;3.87;;
7479;SDS011;3781;42.272;22.658;2024-02-15T07:54:43;6.60;;;4.17;;
7479;SDS011;3781;42.272;22.658;2024-02-15T07:57:10;5.43;;;4.10;;
7479;SDS011;3781;42.272;22.658;2024-02-15T07:59:38;6.83;;;3.73;;
7479;SDS011;3781;42.272;22.658;2024-02-15T08:02:07;7.43;;;4.23;;
7479;SDS011;3781;42.272;22.658;2024-02-15T08:04:39;7.17;;;4.27;;
7479;SDS011;3781;42.272;22.658;2024-02-15T08:07:12;9.10;;;4.77;;
7479;SDS011;3781;42.272;22.658;2024-02-15T08:09:40;6.30;;;4.20;;
7479;SDS011;3781;42.272;22.658;2024-02-15T08:12:09;6.50;;;4.40;;
7479;SDS011;3781;42.272;22.658;2024-02-15T08:14:36;5.60;;;3.70;;
7479;SDS011;3781;42.272;22.658;2024-02-15T08:17:05;4.57;;;3.83;;
7479;SDS011;3781;42.272;22.658;2024-02-15T08:19:33;5.60;;;2.97;;
7479;SDS011;3781;42.272;22.658;2024-02-15T08:22:06;2.80;;;2.40;;
7479;SDS011;3781;42.272;22.658;2024-02-15T08:24:34;2.93;;;2.47;;
7479;SDS011;3781;42.272;22.658;2024-02-15T08:27:02;2.70;;;2.30;;
7479;SDS011;3781;42.272;22.658;2024-02-15T08:29:30;3.93;;;2.60;;
7479;SDS011;3781;42.272;22.658;2024-02-15T08:31:57;4.40;;;2.33;;
7479;SDS011;3781;42.272;22.658;2024-02-15T08:34:24;2.17;;;1.90;;
7479;SDS011;3781;42.272;22.658;2024-02-15T08:36:54;2.20;;;1.87;;
7479;SDS011;3781;42.272;22.658;2024-02-15T08:39:24;3.00;;;2.20;;
7479;SDS011;3781;42.272;22.658;2024-02-15T08:41:51;2.03;;;1.73;;
7479;SDS011;3781;42.272;22.658;2024-02-15T08:44:19;3.10;;;2.10;;
7479;SDS011;3781;42.272;22.658;2024-02-15T08:46:46;3.63;;;2.00;;
7479;SDS011;3781;42.272;22.658;2024-02-15T08:49:14;2.37;;;2.00;;
7479;SDS011;3781;42.272;22.658;2024-02-15T08:51:41;2.40;;;2.20;;
7479;SDS011;3781;42.272;22.658;2024-02-15T08:54:11;2.37;;;1.80;;
7479;SDS011;3781;42.272;22.658;2024-02-15T08:56:40;2.87;;;2.47;;
7479;SDS011;3781;42.272;22.658;2024-02-15T08:59:07;3.83;;;2.70;;
7479;SDS011;3781;42.272;22.658;2024-02-15T09:01:39;4.93;;;1.87;;
7479;SDS011;3781;42.272;22.658;2024-02-15T09:04:06;2.40;;;1.43;;
7479;SDS011;3781;42.272;22.658;2024-02-15T09:06:37;1.70;;;1.53;;
7479;SDS011;3781;42.272;22.658;2024-02-15T09:09:22;4.00;;;2.33;;
7479;SDS011;3781;42.272;22.658;2024-02-15T09:12:00;5.77;;;2.90;;
7479;SDS011;3781;42.272;22.658;2024-02-15T09:14:31;1.93;;;1.83;;
7479;SDS011;3781;42.272;22.658;2024-02-15T09:17:00;3.17;;;2.40;;
7479;SDS011;3781;42.272;22.658;2024-02-15T09:19:37;3.77;;;1.97;;
7479;SDS011;3781;42.272;22.658;2024-02-15T09:22:28;2.83;;;1.83;;
7479;SDS011;3781;42.272;22.658;2024-02-15T09:24:57;2.33;;;1.93;;
7479;SDS011;3781;42.272;22.658;2024-02-15T09:27:34;2.10;;;1.73;;
7479;SDS011;3781;42.272;22.658;2024-02-15T09:30:06;3.27;;;2.40;;
7479;SDS011;3781;42.272;22.658;2024-02-15T09:32:34;4.43;;;1.83;;
7479;SDS011;3781;42.272;22.658;2024-02-15T09:35:04;4.57;;;1.97;;
7479;SDS011;3781;42.272;22.658;2024-02-15T09:37:33;3.23;;;1.97;;
7479;SDS011;3781;42.272;22.658;2024-02-15T09:40:00;1.87;;;1.60;;
7479;SDS011;3781;42.272;22.658;2024-02-15T09:43:08;2.00;;;1.80;;
7479;SDS011;3781;42.272;22.658;2024-02-15T09:45:39;1.57;;;1.47;;
7479;SDS011;3781;42.272;22.658;2024-02-15T09:48:09;1.73;;;1.63;;
7479;SDS011;3781;42.272;22.658;2024-02-15T09:50:39;3.07;;;2.33;;
7479;SDS011;3781;42.272;22.658;2024-02-15T09:53:08;2.27;;;1.80;;
7479;SDS011;3781;42.272;22.658;2024-02-15T09:55:36;1.77;;;1.63;;
7479;SDS011;3781;42.272;22.658;2024-02-15T09:58:06;2.07;;;1.90;;
7479;SDS011;3781;42.272;22.658;2024-02-15T10:00:37;2.53;;;1.93;;
7479;SDS011;3781;42.272;22.658;2024-02-15T10:03:05;3.63;;;2.07;;
7479;SDS011;3781;42.272;22.658;2024-02-15T10:05:33;2.20;;;1.83;;
7479;SDS011;3781;42.272;22.658;2024-02-15T10:07:59;2.10;;;1.60;;
7479;SDS011;3781;42.272;22.658;2024-02-15T10:10:27;3.40;;;1.70;;
7479;SDS011;3781;42.272;22.658;2024-02-15T10:12:54;3.43;;;2.07;;
7479;SDS011;3781;42.272;22.658;2024-02-15T10:15:29;1.87;;;1.67;;
7479;SDS011;3781;42.272;22.658;2024-02-15T10:17:59;2.10;;;1.90;;
7479;SDS011;3781;42.272;22.658;2024-02-15T10:20:26;2.07;;;1.77;;
7479;SDS011;3781;42.272;22.658;2024-02-15T10:22:53;2.03;;;1.63;;
7479;SDS011;3781;42.272;22.658;2024-02-15T10:25:36;4.23;;;1.50;;
7479;SDS011;3781;42.272;22.658;2024-02-15T10:28:03;2.40;;;1.77;;
7479;SDS011;3781;42.272;22.658;2024-02-15T10:30:33;1.43;;;1.20;;
7479;SDS011;3781;42.272;22.658;2024-02-15T10:33:04;1.03;;;1.03;;
7479;SDS011;3781;42.272;22.658;2024-02-15T10:35:32;2.37;;;1.70;;
7479;SDS011;3781;42.272;22.658;2024-02-15T10:38:06;1.60;;;1.50;;
7479;SDS011;3781;42.272;22.658;2024-02-15T10:40:34;1.80;;;1.70;;
7479;SDS011;3781;42.272;22.658;2024-02-15T10:43:02;1.93;;;1.83;;
7479;SDS011;3781;42.272;22.658;2024-02-15T10:45:30;1.63;;;1.33;;
7479;SDS011;3781;42.272;22.658;2024-02-15T10:47:59;3.30;;;1.40;;
7479;SDS011;3781;42.272;22.658;2024-02-15T10:50:37;1.90;;;1.47;;
7479;SDS011;3781;42.272;22.658;2024-02-15T10:53:12;1.57;;;1.47;;
7479;SDS011;3781;42.272;22.658;2024-02-15T10:55:57;3.23;;;1.87;;
7479;SDS011;3781;42.272;22.658;2024-02-15T10:58:33;1.97;;;1.87;;
7479;SDS011;3781;42.272;22.658;2024-02-15T11:01:10;1.70;;;1.60;;
7479;SDS011;3781;42.272;22.658;2024-02-15T11:03:46;2.77;;;1.03;;
7479;SDS011;3781;42.272;22.658;2024-02-15T11:06:17;1.90;;;1.33;;
7479;SDS011;3781;42.272;22.658;2024-02-15T11:08:47;1.77;;;1.67;;
7479;SDS011;3781;42.272;22.658;2024-02-15T11:11:14;2.47;;;2.03;;
7479;SDS011;3781;42.272;22.658;2024-02-15T11:13:41;1.70;;;1.23;;
7479;SDS011;3781;42.272;22.658;2024-02-15T11:16:10;2.53;;;1.87;;
7479;SDS011;3781;42.272;22.658;2024-02-15T11:18:41;1.20;;;1.10;;
7479;SDS011;3781;42.272;22.658;2024-02-15T11:21:11;3.17;;;1.77;;
7479;SDS011;3781;42.272;22.658;2024-02-15T11:23:38;1.63;;;1.53;;
7479;SDS011;3781;42.272;22.658;2024-02-15T11:26:09;1.90;;;1.77;;
7479;SDS011;3781;42.272;22.658;2024-02-15T11:28:58;2.63;;;2.13;;
7479;SDS011;3781;42.272;22.658;2024-02-15T11:37:09;1.20;;;1.20;;
7479;SDS011;3781;42.272;22.658;2024-02-15T11:39:41;1.37;;;1.27;;
7479;SDS011;3781;42.272;22.658;2024-02-15T11:42:27;1.30;;;1.20;;
7479;SDS011;3781;42.272;22.658;2024-02-15T11:45:03;2.87;;;1.40;;
7479;SDS011;3781;42.272;22.658;2024-02-15T11:47:32;1.60;;;1.47;;
7479;SDS011;3781;42.272;22.658;2024-02-15T11:50:04;2.03;;;1.67;;
7479;SDS011;3781;42.272;22.658;2024-02-15T11:52:37;1.43;;;1.17;;
7479;SDS011;3781;42.272;22.658;2024-02-15T11:55:06;2.30;;;2.10;;
7479;SDS011;3781;42.272;22.658;2024-02-15T11:57:35;2.00;;;1.50;;
7479;SDS011;3781;42.272;22.658;2024-02-15T12:00:20;2.00;;;1.90;;
7479;SDS011;3781;42.272;22.658;2024-02-15T12:03:09;1.27;;;1.17;;
7479;SDS011;3781;42.272;22.658;2024-02-15T12:05:54;1.87;;;1.33;;
7479;SDS011;3781;42.272;22.658;2024-02-15T12:08:51;3.83;;;3.20;;
7479;SDS011;3781;42.272;22.658;2024-02-15T12:11:42;2.07;;;1.77;;
7479;SDS011;3781;42.272;22.658;2024-02-15T12:14:25;2.30;;;1.97;;
7479;SDS011;3781;42.272;22.658;2024-02-15T12:23:46;1.93;;;1.30;;
7479;SDS011;3781;42.272;22.658;2024-02-15T12:26:13;2.10;;;1.50;;
7479;SDS011;3781;42.272;22.658;2024-02-15T12:28:40;2.93;;;1.87;;
7479;SDS011;3781;42.272;22.658;2024-02-15T12:31:08;3.67;;;1.63;;
7479;SDS011;3781;42.272;22.658;2024-02-15T12:33:36;3.00;;;1.90;;
7479;SDS011;3781;42.272;22.658;2024-02-15T12:36:05;3.83;;;2.50;;
7479;SDS011;3781;42.272;22.658;2024-02-15T12:38:33;3.73;;;2.57;;
7479;SDS011;3781;42.272;22.658;2024-02-15T12:41:04;1.03;;;0.93;;
7479;SDS011;3781;42.272;22.658;2024-02-15T12:43:44;3.20;;;2.90;;
7479;SDS011;3781;42.272;22.658;2024-02-15T12:46:10;5.77;;;4.37;;
7479;SDS011;3781;42.272;22.658;2024-02-15T12:48:37;14.07;;;8.23;;
7479;SDS011;3781;42.272;22.658;2024-02-15T12:51:12;3.73;;;2.70;;
7479;SDS011;3781;42.272;22.658;2024-02-15T12:53:39;10.20;;;6.90;;
7479;SDS011;3781;42.272;22.658;2024-02-15T12:56:08;18.47;;;9.10;;
7479;SDS011;3781;42.272;22.658;2024-02-15T12:58:35;2.40;;;2.10;;
7479;SDS011;3781;42.272;22.658;2024-02-15T13:01:04;5.13;;;2.30;;
7479;SDS011;3781;42.272;22.658;2024-02-15T13:03:30;3.27;;;3.00;;
7479;SDS011;3781;42.272;22.658;2024-02-15T13:05:57;2.63;;;2.43;;
7479;SDS011;3781;42.272;22.658;2024-02-15T13:08:24;9.00;;;4.73;;
7479;SDS011;3781;42.272;22.658;2024-02-15T13:10:51;2.87;;;1.37;;
7479;SDS011;3781;42.272;22.658;2024-02-15T13:13:19;1.47;;;1.37;;
7479;SDS011;3781;42.272;22.658;2024-02-15T13:15:48;2.43;;;1.80;;
7479;SDS011;3781;42.272;22.658;2024-02-15T13:18:14;1.50;;;1.40;;
7479;SDS011;3781;42.272;22.658;2024-02-15T13:20:42;0.90;;;0.90;;
7479;SDS011;3781;42.272;22.658;2024-02-15T13:23:09;2.17;;;1.53;;
7479;SDS011;3781;42.272;22.658;2024-02-15T13:25:44;1.57;;;1.27;;
7479;SDS011;3781;42.272;22.658;2024-02-15T13:28:11;1.53;;;1.33;;
7479;SDS011;3781;42.272;22.658;2024-02-15T13:30:39;1.77;;;1.30;;
7479;SDS011;3781;42.272;22.658;2024-02-15T13:33:08;2.30;;;1.47;;
7479;SDS011;3781;42.272;22.658;2024-02-15T13:35:35;2.93;;;1.50;;
7479;SDS011;3781;42.272;22.658;2024-02-15T13:38:02;1.50;;;1.40;;
7479;SDS011;3781;42.272;22.658;2024-02-15T13:40:29;4.13;;;2.10;;
7479;SDS011;3781;42.272;22.658;2024-02-15T13:42:57;3.67;;;1.50;;
7479;SDS011;3781;42.272;22.658;2024-02-15T13:45:26;2.33;;;1.60;;
7479;SDS011;3781;42.272;22.658;2024-02-15T13:47:59;1.90;;;1.47;;
7479;SDS011;3781;42.272;22.658;2024-02-15T13:50:28;1.80;;;1.30;;
7479;SDS011;3781;42.272;22.658;2024-02-15T13:52:55;2.57;;;2.17;;
7479;SDS011;3781;42.272;22.658;2024-02-15T13:55:23;1.47;;;1.23;;
7479;SDS011;3781;42.272;22.658;2024-02-15T13:57:50;1.83;;;1.40;;
7479;SDS011;3781;42.272;22.658;2024-02-15T14:00:18;2.97;;;1.57;;
7479;SDS011;3781;42.272;22.658;2024-02-15T14:02:48;2.17;;;1.23;;
7479;SDS011;3781;42.272;22.658;2024-02-15T14:05:17;4.43;;;1.50;;
7479;SDS011;3781;42.272;22.658;2024-02-15T14:07:48;1.27;;;1.10;;
7479;SDS011;3781;42.272;22.658;2024-02-15T14:10:15;1.40;;;1.30;;
7479;SDS011;3781;42.272;22.658;2024-02-15T14:12:44;1.50;;;1.40;;
7479;SDS011;3781;42.272;22.658;2024-02-15T14:15:12;2.47;;;1.90;;
7479;SDS011;3781;42.272;22.658;2024-02-15T14:17:40;2.03;;;1.60;;
7479;SDS011;3781;42.272;22.658;2024-02-15T14:20:07;2.30;;;1.43;;
7479;SDS011;3781;42.272;22.658;2024-02-15T14:22:41;3.77;;;1.73;;
7479;SDS011;3781;42.272;22.658;2024-02-15T14:25:14;2.30;;;1.80;;
7479;SDS011;3781;42.272;22.658;2024-02-15T14:27:41;1.70;;;1.60;;
7479;SDS011;3781;42.272;22.658;2024-02-15T14:30:08;4.27;;;2.63;;
7479;SDS011;3781;42.272;22.658;2024-02-15T14:32:52;1.83;;;1.50;;
7479;SDS011;3781;42.272;22.658;2024-02-15T14:35:32;5.83;;;1.60;;
7479;SDS011;3781;42.272;22.658;2024-02-15T14:38:03;4.80;;;3.10;;
7479;SDS011;3781;42.272;22.658;2024-02-15T14:40:32;1.90;;;1.80;;
7479;SDS011;3781;42.272;22.658;2024-02-15T14:42:59;3.03;;;1.90;;
7479;SDS011;3781;42.272;22.658;2024-02-15T14:45:26;4.90;;;3.60;;
7479;SDS011;3781;42.272;22.658;2024-02-15T14:47:53;4.00;;;2.77;;
7479;SDS011;3781;42.272;22.658;2024-02-15T14:50:20;3.30;;;2.43;;
7479;SDS011;3781;42.272;22.658;2024-02-15T14:52:48;9.77;;;6.67;;
7479;SDS011;3781;42.272;22.658;2024-02-15T14:55:18;2.63;;;2.33;;
7479;SDS011;3781;42.272;22.658;2024-02-15T14:57:45;1.83;;;1.47;;
7479;SDS011;3781;42.272;22.658;2024-02-15T15:00:13;1.83;;;1.63;;
7479;SDS011;3781;42.272;22.658;2024-02-15T15:02:42;2.07;;;1.60;;
7479;SDS011;3781;42.272;22.658;2024-02-15T15:05:09;2.30;;;2.10;;
7479;SDS011;3781;42.272;22.658;2024-02-15T15:07:53;2.60;;;1.83;;
7479;SDS011;3781;42.272;22.658;2024-02-15T15:10:39;5.50;;;2.37;;
7479;SDS011;3781;42.272;22.658;2024-02-15T15:13:23;3.47;;;2.60;;
7479;SDS011;3781;42.272;22.658;2024-02-15T15:15:50;6.73;;;3.40;;
7479;SDS011;3781;42.272;22.658;2024-02-15T15:18:17;5.40;;;3.70;;
7479;SDS011;3781;42.272;22.658;2024-02-15T15:20:44;3.63;;;2.40;;
7479;SDS011;3781;42.272;22.658;2024-02-15T15:23:11;8.73;;;3.20;;
7479;SDS011;3781;42.272;22.658;2024-02-15T15:25:40;2.80;;;1.93;;
7479;SDS011;3781;42.272;22.658;2024-02-15T15:28:06;4.37;;;2.00;;
7479;SDS011;3781;42.272;22.658;2024-02-15T15:30:33;4.03;;;2.80;;